Brightway — 9V8755 — position and weather

sailwx.info

Track history (hours):
 
Tides and Currents Weather Stations Pressure Air Temp Water Temp Dewpoint Dewpoint Depression Visibility Wind Speed Wind Dir Waves Ship Positions

Brightway

Last reported at 2017-Mar-26 04:33 UTC. Time now 2017-Mar-26 05:31 UTC.
Position N 01°18' E 104°07'.

Length 274 m; draft 9.4 m.

Type: Tanker. MMSI: 566422000.

Date/timePositionNaut miles runAvg speedWind from/ knotsBaromVisibWave heightAir tempDewpointWater temp
2017-Mar-26 04:33N 01°18' E 104°07'2 0.7
2017-Mar-26 01:30N 01°17' E 104°09'7 3.2
2017-Mar-25 23:26N 01°14' E 104°03'6 6.9
2017-Mar-25 22:33N 01°14' E 103°57'2 2.2
2017-Mar-25 21:33N 01°15' E 103°55'0 0.0
2017-Mar-25 20:30N 01°15' E 103°55'0 0.0
2017-Mar-25 19:34N 01°15' E 103°55'0 0.0
2017-Mar-25 18:33N 01°15' E 103°55'0 0.0
2017-Mar-25 17:33N 01°15' E 103°55'0 0.0
2017-Mar-25 16:34N 01°15' E 103°55'0 0.0
2017-Mar-25 15:33N 01°15' E 103°55'0 0.1
2017-Mar-25 14:32N 01°15' E 103°55'0 0.0
2017-Mar-25 13:33N 01°15' E 103°55'0 0.0
2017-Mar-25 12:32N 01°15' E 103°55'0 0.0
2017-Mar-25 11:32N 01°15' E 103°55'0 0.2
2017-Mar-25 10:31N 01°15' E 103°56'0 0.2
2017-Mar-25 09:33N 01°15' E 103°55'0 0.0
2017-Mar-25 08:31N 01°15' E 103°55'0 0.0
2017-Mar-25 07:32N 01°15' E 103°55'0 0.0
2017-Mar-25 06:31N 01°15' E 103°55'0 0.0
2017-Mar-25 05:33N 01°15' E 103°55'0 0.1
2017-Mar-25 04:33N 01°15' E 103°55'0 0.1
2017-Mar-25 03:33N 01°15' E 103°55'0 0.1
2017-Mar-25 02:33N 01°15' E 103°55'0 0.0
2017-Mar-25 01:33N 01°15' E 103°55'0 0.0
2017-Mar-25 00:21N 01°15' E 103°55'0 0.0
2017-Mar-24 23:30N 01°15' E 103°55'0 0.0
2017-Mar-24 21:33N 01°15' E 103°55'0 0.0
2017-Mar-24 20:21N 01°15' E 103°55'0 0.0
2017-Mar-24 19:27N 01°15' E 103°55'0 0.1
2017-Mar-24 18:33N 01°15' E 103°55'0 0.0
2017-Mar-24 17:32N 01°15' E 103°55'0 0.0
2017-Mar-24 16:33N 01°15' E 103°55'0 0.0
2017-Mar-24 15:32N 01°15' E 103°55'0 0.0
2017-Mar-24 14:26N 01°15' E 103°55'0 0.1
2017-Mar-24 13:23N 01°15' E 103°55'0 0.0
2017-Mar-24 12:33N 01°15' E 103°55'0 0.0
2017-Mar-24 11:33N 01°15' E 103°55'0 0.2
2017-Mar-24 10:33N 01°15' E 103°55'0 0.1
2017-Mar-24 09:33N 01°15' E 103°56'0 0.0
2017-Mar-24 08:33N 01°15' E 103°56'0 0.0
2017-Mar-24 07:32N 01°15' E 103°56'0 0.0
2017-Mar-24 06:33N 01°15' E 103°56'0 0.0
2017-Mar-24 05:33N 01°15' E 103°56'0 0.0
2017-Mar-24 04:24N 01°15' E 103°56'0 0.0
2017-Mar-24 03:33N 01°15' E 103°56'0 0.1
2017-Mar-24 02:27N 01°15' E 103°56'0 0.3
2017-Mar-24 01:19N 01°15' E 103°55'0 0.0
2017-Mar-24 00:31N 01°15' E 103°55'0 0.1
2017-Mar-23 23:25N 01°15' E 103°55'0 0.0
2017-Mar-23 22:30N 01°15' E 103°55'0 0.0
2017-Mar-23 21:34N 01°15' E 103°55'0 0.0
2017-Mar-23 20:33N 01°15' E 103°55'0 0.1
2017-Mar-23 19:30N 01°15' E 103°55'0 0.0
2017-Mar-23 18:33N 01°15' E 103°55'0 0.0
2017-Mar-23 17:22N 01°15' E 103°55'0 0.1
2017-Mar-23 16:33N 01°15' E 103°55'0 0.0
2017-Mar-23 15:33N 01°15' E 103°55'0 0.0
2017-Mar-23 14:33N 01°15' E 103°55'0 0.0
2017-Mar-23 13:29N 01°15' E 103°55'0 0.0
2017-Mar-23 12:34N 01°15' E 103°55'0 0.0
2017-Mar-23 11:33N 01°15' E 103°55'0 0.1
2017-Mar-23 10:29N 01°15' E 103°55'0 0.1
2017-Mar-23 09:32N 01°15' E 103°55'0 0.1
2017-Mar-23 08:20N 01°15' E 103°55'0 0.2
2017-Mar-23 07:33N 01°15' E 103°55'0 0.1
2017-Mar-23 06:31N 01°15' E 103°55'0 0.0
2017-Mar-23 05:32N 01°15' E 103°55'0 0.1
2017-Mar-23 04:32N 01°15' E 103°56'0 0.1
2017-Mar-23 03:33N 01°15' E 103°55'0 0.1
2017-Mar-23 02:32N 01°15' E 103°56'0 0.1
2017-Mar-23 01:33N 01°15' E 103°55'0 0.1
2017-Mar-23 00:33N 01°15' E 103°55'0 0.1
2017-Mar-22 23:33N 01°15' E 103°55'0 0.0
2017-Mar-22 22:33N 01°15' E 103°55'0 0.0
2017-Mar-22 21:33N 01°15' E 103°55'0 0.0
2017-Mar-22 20:32N 01°15' E 103°55'0 0.0
2017-Mar-22 19:33N 01°15' E 103°55'0 0.0
2017-Mar-22 18:30N 01°15' E 103°55'0 0.0
2017-Mar-22 17:28N 01°15' E 103°55'0 0.0
2017-Mar-22 16:33N 01°15' E 103°55'1 0.6
2017-Mar-22 15:34N 01°15' E 103°56'2 1.6
2017-Mar-22 14:33N 01°13' E 103°55'9 8.7
2017-Mar-22 13:33N 01°09' E 103°47'1111.4
2017-Mar-22 12:33N 01°03' E 103°38'1312.6
2017-Mar-22 11:33N 01°10' E 103°27'9 9.0
2017-Mar-22 10:32N 01°16' E 103°20'6010.0
2017-Mar-22 04:33N 01°47' E 102°29'1212.3
2017-Mar-22 03:33N 01°52' E 102°18'1511.9
2017-Mar-22 02:19N 02°01' E 102°06'  
2017-Mar-17 22:20N 02°21' E 101°56'0 0.1
2017-Mar-17 21:32N 02°21' E 101°56'0 0.1
2017-Mar-17 17:32N 02°21' E 101°56'  
Track history (hours):
 
Tides and Currents Weather Stations Pressure Air Temp Water Temp Dewpoint Dewpoint Depression Visibility Wind Speed Wind Dir Waves Ship Positions

Brightway

Last reported at 2017-Mar-26 04:33 UTC. Time now 2017-Mar-26 05:31 UTC.
Position N 01°18' E 104°07'.

Length 274 m; draft 9.4 m.

Type: Tanker. MMSI: 566422000.

Date/timePositionNaut miles runAvg speedWind from/ knotsBaromVisibWave heightAir tempDewpointWater temp
2017-Mar-26 04:33N 01°18' E 104°07'2 0.7
2017-Mar-26 01:30N 01°17' E 104°09'7 3.2
2017-Mar-25 23:26N 01°14' E 104°03'6 6.9
2017-Mar-25 22:33N 01°14' E 103°57'2 2.2
2017-Mar-25 21:33N 01°15' E 103°55'0 0.0
2017-Mar-25 20:30N 01°15' E 103°55'0 0.0
2017-Mar-25 19:34N 01°15' E 103°55'0 0.0
2017-Mar-25 18:33N 01°15' E 103°55'0 0.0
2017-Mar-25 17:33N 01°15' E 103°55'0 0.0
2017-Mar-25 16:34N 01°15' E 103°55'0 0.0
2017-Mar-25 15:33N 01°15' E 103°55'0 0.1
2017-Mar-25 14:32N 01°15' E 103°55'0 0.0
2017-Mar-25 13:33N 01°15' E 103°55'0 0.0
2017-Mar-25 12:32N 01°15' E 103°55'0 0.0
2017-Mar-25 11:32N 01°15' E 103°55'0 0.2
2017-Mar-25 10:31N 01°15' E 103°56'0 0.2
2017-Mar-25 09:33N 01°15' E 103°55'0 0.0
2017-Mar-25 08:31N 01°15' E 103°55'0 0.0
2017-Mar-25 07:32N 01°15' E 103°55'0 0.0
2017-Mar-25 06:31N 01°15' E 103°55'0 0.0
2017-Mar-25 05:33N 01°15' E 103°55'0 0.1
2017-Mar-25 04:33N 01°15' E 103°55'0 0.1
2017-Mar-25 03:33N 01°15' E 103°55'0 0.1
2017-Mar-25 02:33N 01°15' E 103°55'0 0.0
2017-Mar-25 01:33N 01°15' E 103°55'0 0.0
2017-Mar-25 00:21N 01°15' E 103°55'0 0.0
2017-Mar-24 23:30N 01°15' E 103°55'0 0.0
2017-Mar-24 21:33N 01°15' E 103°55'0 0.0
2017-Mar-24 20:21N 01°15' E 103°55'0 0.0
2017-Mar-24 19:27N 01°15' E 103°55'0 0.1
2017-Mar-24 18:33N 01°15' E 103°55'0 0.0
2017-Mar-24 17:32N 01°15' E 103°55'0 0.0
2017-Mar-24 16:33N 01°15' E 103°55'0 0.0
2017-Mar-24 15:32N 01°15' E 103°55'0 0.0
2017-Mar-24 14:26N 01°15' E 103°55'0 0.1
2017-Mar-24 13:23N 01°15' E 103°55'0 0.0
2017-Mar-24 12:33N 01°15' E 103°55'0 0.0
2017-Mar-24 11:33N 01°15' E 103°55'0 0.2
2017-Mar-24 10:33N 01°15' E 103°55'0 0.1
2017-Mar-24 09:33N 01°15' E 103°56'0 0.0
2017-Mar-24 08:33N 01°15' E 103°56'0 0.0
2017-Mar-24 07:32N 01°15' E 103°56'0 0.0
2017-Mar-24 06:33N 01°15' E 103°56'0 0.0
2017-Mar-24 05:33N 01°15' E 103°56'0 0.0
2017-Mar-24 04:24N 01°15' E 103°56'0 0.0
2017-Mar-24 03:33N 01°15' E 103°56'0 0.1
2017-Mar-24 02:27N 01°15' E 103°56'0 0.3
2017-Mar-24 01:19N 01°15' E 103°55'0 0.0
2017-Mar-24 00:31N 01°15' E 103°55'0 0.1
2017-Mar-23 23:25N 01°15' E 103°55'0 0.0
2017-Mar-23 22:30N 01°15' E 103°55'0 0.0
2017-Mar-23 21:34N 01°15' E 103°55'0 0.0
2017-Mar-23 20:33N 01°15' E 103°55'0 0.1
2017-Mar-23 19:30N 01°15' E 103°55'0 0.0
2017-Mar-23 18:33N 01°15' E 103°55'0 0.0
2017-Mar-23 17:22N 01°15' E 103°55'0 0.1
2017-Mar-23 16:33N 01°15' E 103°55'0 0.0
2017-Mar-23 15:33N 01°15' E 103°55'0 0.0
2017-Mar-23 14:33N 01°15' E 103°55'0 0.0
2017-Mar-23 13:29N 01°15' E 103°55'0 0.0
2017-Mar-23 12:34N 01°15' E 103°55'0 0.0
2017-Mar-23 11:33N 01°15' E 103°55'0 0.1
2017-Mar-23 10:29N 01°15' E 103°55'0 0.1
2017-Mar-23 09:32N 01°15' E 103°55'0 0.1
2017-Mar-23 08:20N 01°15' E 103°55'0 0.2
2017-Mar-23 07:33N 01°15' E 103°55'0 0.1
2017-Mar-23 06:31N 01°15' E 103°55'0 0.0
2017-Mar-23 05:32N 01°15' E 103°55'0 0.1
2017-Mar-23 04:32N 01°15' E 103°56'0 0.1
2017-Mar-23 03:33N 01°15' E 103°55'0 0.1
2017-Mar-23 02:32N 01°15' E 103°56'0 0.1
2017-Mar-23 01:33N 01°15' E 103°55'0 0.1
2017-Mar-23 00:33N 01°15' E 103°55'0 0.1
2017-Mar-22 23:33N 01°15' E 103°55'0 0.0
2017-Mar-22 22:33N 01°15' E 103°55'0 0.0
2017-Mar-22 21:33N 01°15' E 103°55'0 0.0
2017-Mar-22 20:32N 01°15' E 103°55'0 0.0
2017-Mar-22 19:33N 01°15' E 103°55'0 0.0
2017-Mar-22 18:30N 01°15' E 103°55'0 0.0
2017-Mar-22 17:28N 01°15' E 103°55'0 0.0
2017-Mar-22 16:33N 01°15' E 103°55'1 0.6
2017-Mar-22 15:34N 01°15' E 103°56'2 1.6
2017-Mar-22 14:33N 01°13' E 103°55'9 8.7
2017-Mar-22 13:33N 01°09' E 103°47'1111.4
2017-Mar-22 12:33N 01°03' E 103°38'1312.6
2017-Mar-22 11:33N 01°10' E 103°27'9 9.0
2017-Mar-22 10:32N 01°16' E 103°20'6010.0
2017-Mar-22 04:33N 01°47' E 102°29'1212.3
2017-Mar-22 03:33N 01°52' E 102°18'1511.9
2017-Mar-22 02:19N 02°01' E 102°06'  
2017-Mar-17 22:20N 02°21' E 101°56'0 0.1
2017-Mar-17 21:32N 02°21' E 101°56'0 0.1
2017-Mar-17 17:32N 02°21' E 101°56'  

Dump ship's entire track history